Overview Statistics Trail Chart Weather Telemetry Raw packets
 

This is the latest recevied weather packets stored in our database for station/object IW1RCO-13. If no packets are shown the sender has not sent any weather packets the latest 10 day(s).

<< 73 74 75 76 77 78 79 >>
Time Temp. Humidity Pressure Rain* Wind** Luminosity Snow
1788026066 20.56° C 72% 1013.9 hPa - - - -
1788025770 21.11° C 72% 1013.8 hPa - - - -
1788025468 21.67° C 69% 1013.7 hPa - - - -
1788025169 22.22° C 66% 1014.1 hPa - - - -
1788024866 22.22° C 67% 1014.4 hPa - - - -
1788024569 22.78° C 67% 1014.2 hPa - - - -
1788024266 22.78° C 67% 1014 hPa - - - -
1788023969 22.78° C 68% 1013.4 hPa - - - -
1788023665 23.33° C 64% 1013.7 hPa - - - -
1788023369 23.33° C 63% 1014.4 hPa - - - -
1788023065 22.78° C 65% 1013.7 hPa - - - -
1788022472 23.33° C 64% 1013.6 hPa - - - -
1788022168 23.33° C 61% 1014.3 hPa - - - -
1788021871 23.33° C 64% 1014.1 hPa - - - -
1788021568 23.33° C 62% 1013.9 hPa - - - -
1788021271 23.33° C 62% 1013.9 hPa - - - -
1788020968 24.44° C 60% 1014.1 hPa - - - -
1788020671 25.56° C 58% 1013.7 hPa - - - -
1788020367 26.11° C 56% 1013.3 hPa - - - -
1788020071 25.56° C 56% 1013.5 hPa - - - -
1788019767 26.67° C 55% 1013.7 hPa - - - -
1788019470 26.67° C 53% 1014.1 hPa - - - -
1788019167 25.56° C 56% 1014 hPa - - - -
1788018870 25° C 59% 1013.8 hPa - - - -
1788018567 24.44° C 59% 1014.4 hPa - - - -

* Rain since midnight (hover to see other rain measurements)
** Current wind speed in m/s (hover to see current wind gust speed)